sensor_id;sensor_type;location;lat;lon;timestamp;P1;durP1;ratioP1;P2;durP2;ratioP2
54191;SDS011;40101;53.002;6.488;2024-01-06T00:01:51;27.38;;;14.07;;
54191;SDS011;40101;53.002;6.488;2024-01-06T00:04:16;23.40;;;14.18;;
54191;SDS011;40101;53.002;6.488;2024-01-06T00:06:42;24.05;;;14.70;;
54191;SDS011;40101;53.002;6.488;2024-01-06T00:09:07;27.77;;;15.45;;
54191;SDS011;40101;53.002;6.488;2024-01-06T00:11:33;26.27;;;14.75;;
54191;SDS011;40101;53.002;6.488;2024-01-06T00:13:59;23.00;;;14.55;;
54191;SDS011;40101;53.002;6.488;2024-01-06T00:16:24;27.60;;;14.43;;
54191;SDS011;40101;53.002;6.488;2024-01-06T00:18:50;24.17;;;14.43;;
54191;SDS011;40101;53.002;6.488;2024-01-06T00:21:16;23.55;;;14.07;;
54191;SDS011;40101;53.002;6.488;2024-01-06T00:23:41;25.52;;;14.85;;
54191;SDS011;40101;53.002;6.488;2024-01-06T00:26:07;27.65;;;13.63;;
54191;SDS011;40101;53.002;6.488;2024-01-06T00:28:34;20.92;;;13.75;;
54191;SDS011;40101;53.002;6.488;2024-01-06T00:31:00;21.58;;;13.82;;
54191;SDS011;40101;53.002;6.488;2024-01-06T00:33:26;21.60;;;12.50;;
54191;SDS011;40101;53.002;6.488;2024-01-06T00:35:51;21.80;;;13.18;;
54191;SDS011;40101;53.002;6.488;2024-01-06T00:38:17;23.20;;;13.55;;
54191;SDS011;40101;53.002;6.488;2024-01-06T00:40:43;23.58;;;13.27;;
54191;SDS011;40101;53.002;6.488;2024-01-06T00:43:08;22.77;;;13.27;;
54191;SDS011;40101;53.002;6.488;2024-01-06T00:45:34;23.50;;;12.52;;
54191;SDS011;40101;53.002;6.488;2024-01-06T00:48:00;23.88;;;12.35;;
54191;SDS011;40101;53.002;6.488;2024-01-06T00:50:25;23.63;;;13.75;;
54191;SDS011;40101;53.002;6.488;2024-01-06T00:52:51;27.00;;;14.13;;
54191;SDS011;40101;53.002;6.488;2024-01-06T00:55:21;26.90;;;15.38;;
54191;SDS011;40101;53.002;6.488;2024-01-06T00:57:47;23.85;;;14.25;;
54191;SDS011;40101;53.002;6.488;2024-01-06T01:00:13;25.88;;;14.90;;
54191;SDS011;40101;53.002;6.488;2024-01-06T01:02:39;24.38;;;13.85;;
54191;SDS011;40101;53.002;6.488;2024-01-06T01:05:05;31.50;;;16.08;;
54191;SDS011;40101;53.002;6.488;2024-01-06T01:07:32;26.02;;;14.50;;
54191;SDS011;40101;53.002;6.488;2024-01-06T01:09:58;24.95;;;14.10;;
54191;SDS011;40101;53.002;6.488;2024-01-06T01:12:24;24.77;;;13.57;;
54191;SDS011;40101;53.002;6.488;2024-01-06T01:14:49;25.42;;;13.65;;
54191;SDS011;40101;53.002;6.488;2024-01-06T01:17:16;31.20;;;15.05;;
54191;SDS011;40101;53.002;6.488;2024-01-06T01:19:42;26.75;;;13.68;;
54191;SDS011;40101;53.002;6.488;2024-01-06T01:22:07;25.83;;;13.85;;
54191;SDS011;40101;53.002;6.488;2024-01-06T01:24:33;25.77;;;14.80;;
54191;SDS011;40101;53.002;6.488;2024-01-06T01:26:59;29.92;;;13.32;;
54191;SDS011;40101;53.002;6.488;2024-01-06T01:29:24;23.15;;;13.75;;
54191;SDS011;40101;53.002;6.488;2024-01-06T01:31:50;22.73;;;12.48;;
54191;SDS011;40101;53.002;6.488;2024-01-06T01:34:16;22.50;;;12.15;;
54191;SDS011;40101;53.002;6.488;2024-01-06T01:36:41;26.65;;;12.40;;
54191;SDS011;40101;53.002;6.488;2024-01-06T01:39:07;23.27;;;12.75;;
54191;SDS011;40101;53.002;6.488;2024-01-06T01:41:32;24.25;;;13.65;;
54191;SDS011;40101;53.002;6.488;2024-01-06T01:43:58;26.48;;;13.25;;
54191;SDS011;40101;53.002;6.488;2024-01-06T01:46:27;24.50;;;12.80;;
54191;SDS011;40101;53.002;6.488;2024-01-06T01:48:54;21.52;;;11.05;;
54191;SDS011;40101;53.002;6.488;2024-01-06T01:51:20;19.55;;;11.55;;
54191;SDS011;40101;53.002;6.488;2024-01-06T01:53:46;21.30;;;12.55;;
54191;SDS011;40101;53.002;6.488;2024-01-06T01:56:12;19.50;;;11.50;;
54191;SDS011;40101;53.002;6.488;2024-01-06T01:58:39;20.08;;;11.18;;
54191;SDS011;40101;53.002;6.488;2024-01-06T02:01:05;19.60;;;11.90;;
54191;SDS011;40101;53.002;6.488;2024-01-06T02:03:32;25.38;;;11.90;;
54191;SDS011;40101;53.002;6.488;2024-01-06T02:05:58;25.70;;;13.85;;
54191;SDS011;40101;53.002;6.488;2024-01-06T02:08:24;23.48;;;13.05;;
54191;SDS011;40101;53.002;6.488;2024-01-06T02:10:49;22.75;;;12.57;;
54191;SDS011;40101;53.002;6.488;2024-01-06T02:13:15;26.42;;;13.05;;
54191;SDS011;40101;53.002;6.488;2024-01-06T02:15:41;25.38;;;12.63;;
54191;SDS011;40101;53.002;6.488;2024-01-06T02:18:06;26.70;;;12.50;;
54191;SDS011;40101;53.002;6.488;2024-01-06T02:20:32;22.60;;;12.13;;
54191;SDS011;40101;53.002;6.488;2024-01-06T02:22:58;24.08;;;11.63;;
54191;SDS011;40101;53.002;6.488;2024-01-06T02:25:25;25.23;;;12.77;;
54191;SDS011;40101;53.002;6.488;2024-01-06T02:27:51;21.08;;;12.00;;
54191;SDS011;40101;53.002;6.488;2024-01-06T02:30:17;22.55;;;12.60;;
54191;SDS011;40101;53.002;6.488;2024-01-06T02:32:42;24.38;;;12.52;;
54191;SDS011;40101;53.002;6.488;2024-01-06T02:35:08;27.00;;;12.55;;
54191;SDS011;40101;53.002;6.488;2024-01-06T02:37:33;22.02;;;11.93;;
54191;SDS011;40101;53.002;6.488;2024-01-06T02:39:59;21.42;;;11.95;;
54191;SDS011;40101;53.002;6.488;2024-01-06T02:42:25;25.77;;;13.30;;
54191;SDS011;40101;53.002;6.488;2024-01-06T02:44:51;18.73;;;11.80;;
54191;SDS011;40101;53.002;6.488;2024-01-06T02:47:16;23.17;;;12.60;;
54191;SDS011;40101;53.002;6.488;2024-01-06T02:49:42;25.17;;;12.27;;
54191;SDS011;40101;53.002;6.488;2024-01-06T02:52:09;19.13;;;12.20;;
54191;SDS011;40101;53.002;6.488;2024-01-06T02:54:35;26.25;;;13.90;;
54191;SDS011;40101;53.002;6.488;2024-01-06T02:57:00;27.25;;;13.80;;
54191;SDS011;40101;53.002;6.488;2024-01-06T02:59:26;21.00;;;12.15;;
54191;SDS011;40101;53.002;6.488;2024-01-06T03:01:51;29.05;;;13.07;;
54191;SDS011;40101;53.002;6.488;2024-01-06T03:04:17;24.42;;;14.43;;
54191;SDS011;40101;53.002;6.488;2024-01-06T03:06:42;24.38;;;13.13;;
54191;SDS011;40101;53.002;6.488;2024-01-06T03:09:08;26.27;;;12.52;;
54191;SDS011;40101;53.002;6.488;2024-01-06T03:11:34;26.65;;;13.73;;
54191;SDS011;40101;53.002;6.488;2024-01-06T03:13:59;27.13;;;14.05;;
54191;SDS011;40101;53.002;6.488;2024-01-06T03:16:25;25.45;;;14.82;;
54191;SDS011;40101;53.002;6.488;2024-01-06T03:18:50;25.10;;;13.60;;
54191;SDS011;40101;53.002;6.488;2024-01-06T03:21:17;26.50;;;13.77;;
54191;SDS011;40101;53.002;6.488;2024-01-06T03:23:43;27.70;;;15.35;;
54191;SDS011;40101;53.002;6.488;2024-01-06T03:26:08;28.70;;;14.60;;
54191;SDS011;40101;53.002;6.488;2024-01-06T03:28:34;26.00;;;13.45;;
54191;SDS011;40101;53.002;6.488;2024-01-06T03:31:00;22.27;;;13.05;;
54191;SDS011;40101;53.002;6.488;2024-01-06T03:33:25;23.90;;;13.65;;
54191;SDS011;40101;53.002;6.488;2024-01-06T03:35:51;23.42;;;12.75;;
54191;SDS011;40101;53.002;6.488;2024-01-06T03:38:16;22.70;;;11.90;;
54191;SDS011;40101;53.002;6.488;2024-01-06T03:40:42;29.08;;;14.73;;
54191;SDS011;40101;53.002;6.488;2024-01-06T03:43:08;28.67;;;13.20;;
54191;SDS011;40101;53.002;6.488;2024-01-06T03:45:33;26.33;;;14.18;;
54191;SDS011;40101;53.002;6.488;2024-01-06T03:47:59;28.80;;;14.48;;
54191;SDS011;40101;53.002;6.488;2024-01-06T03:50:24;33.03;;;16.17;;
54191;SDS011;40101;53.002;6.488;2024-01-06T03:52:50;29.52;;;14.00;;
54191;SDS011;40101;53.002;6.488;2024-01-06T03:55:16;27.70;;;14.77;;
54191;SDS011;40101;53.002;6.488;2024-01-06T03:57:41;26.42;;;14.40;;
54191;SDS011;40101;53.002;6.488;2024-01-06T04:00:07;26.85;;;13.55;;
54191;SDS011;40101;53.002;6.488;2024-01-06T04:02:33;26.85;;;13.70;;
54191;SDS011;40101;53.002;6.488;2024-01-06T04:04:59;24.85;;;13.63;;
54191;SDS011;40101;53.002;6.488;2024-01-06T04:07:24;29.95;;;15.35;;
54191;SDS011;40101;53.002;6.488;2024-01-06T04:09:50;24.83;;;12.90;;
54191;SDS011;40101;53.002;6.488;2024-01-06T04:12:16;26.02;;;13.50;;
54191;SDS011;40101;53.002;6.488;2024-01-06T04:14:42;27.83;;;13.30;;
54191;SDS011;40101;53.002;6.488;2024-01-06T04:17:07;26.75;;;13.32;;
54191;SDS011;40101;53.002;6.488;2024-01-06T04:19:33;33.03;;;14.25;;
54191;SDS011;40101;53.002;6.488;2024-01-06T04:21:59;31.02;;;14.48;;
54191;SDS011;40101;53.002;6.488;2024-01-06T04:24:25;23.85;;;13.95;;
54191;SDS011;40101;53.002;6.488;2024-01-06T04:26:50;27.77;;;15.00;;
54191;SDS011;40101;53.002;6.488;2024-01-06T04:29:16;29.08;;;13.95;;
54191;SDS011;40101;53.002;6.488;2024-01-06T04:31:41;26.33;;;14.52;;
54191;SDS011;40101;53.002;6.488;2024-01-06T04:34:07;36.80;;;15.02;;
54191;SDS011;40101;53.002;6.488;2024-01-06T04:36:32;28.33;;;14.20;;
54191;SDS011;40101;53.002;6.488;2024-01-06T04:38:58;28.65;;;14.50;;
54191;SDS011;40101;53.002;6.488;2024-01-06T04:41:24;28.83;;;14.30;;
54191;SDS011;40101;53.002;6.488;2024-01-06T04:43:49;30.77;;;13.73;;
54191;SDS011;40101;53.002;6.488;2024-01-06T04:46:15;30.48;;;14.90;;
54191;SDS011;40101;53.002;6.488;2024-01-06T04:48:41;23.63;;;13.63;;
54191;SDS011;40101;53.002;6.488;2024-01-06T04:51:08;22.58;;;13.10;;
54191;SDS011;40101;53.002;6.488;2024-01-06T04:53:35;32.47;;;14.40;;
54191;SDS011;40101;53.002;6.488;2024-01-06T04:56:01;24.25;;;13.70;;
54191;SDS011;40101;53.002;6.488;2024-01-06T04:58:27;25.85;;;13.10;;
54191;SDS011;40101;53.002;6.488;2024-01-06T05:00:52;27.77;;;14.55;;
54191;SDS011;40101;53.002;6.488;2024-01-06T05:03:18;23.63;;;13.07;;
54191;SDS011;40101;53.002;6.488;2024-01-06T05:05:44;24.02;;;12.82;;
54191;SDS011;40101;53.002;6.488;2024-01-06T05:08:10;23.58;;;13.05;;
54191;SDS011;40101;53.002;6.488;2024-01-06T05:10:35;25.48;;;13.80;;
54191;SDS011;40101;53.002;6.488;2024-01-06T05:13:01;26.13;;;12.63;;
54191;SDS011;40101;53.002;6.488;2024-01-06T05:15:26;25.58;;;14.10;;
54191;SDS011;40101;53.002;6.488;2024-01-06T05:17:52;26.52;;;15.45;;
54191;SDS011;40101;53.002;6.488;2024-01-06T05:20:18;22.48;;;13.02;;
54191;SDS011;40101;53.002;6.488;2024-01-06T05:22:43;32.97;;;14.05;;
54191;SDS011;40101;53.002;6.488;2024-01-06T05:25:09;23.63;;;13.95;;
54191;SDS011;40101;53.002;6.488;2024-01-06T05:27:34;19.55;;;11.43;;
54191;SDS011;40101;53.002;6.488;2024-01-06T05:30:00;24.85;;;11.93;;
54191;SDS011;40101;53.002;6.488;2024-01-06T05:32:26;24.40;;;12.88;;
54191;SDS011;40101;53.002;6.488;2024-01-06T05:34:52;21.85;;;11.73;;
54191;SDS011;40101;53.002;6.488;2024-01-06T05:37:17;26.10;;;13.13;;
54191;SDS011;40101;53.002;6.488;2024-01-06T05:39:43;19.23;;;11.75;;
54191;SDS011;40101;53.002;6.488;2024-01-06T05:42:09;22.73;;;13.50;;
54191;SDS011;40101;53.002;6.488;2024-01-06T05:44:38;23.63;;;13.25;;
54191;SDS011;40101;53.002;6.488;2024-01-06T05:47:04;25.65;;;13.43;;
54191;SDS011;40101;53.002;6.488;2024-01-06T05:49:29;22.20;;;12.75;;
54191;SDS011;40101;53.002;6.488;2024-01-06T05:51:55;27.00;;;14.18;;
54191;SDS011;40101;53.002;6.488;2024-01-06T05:54:21;27.77;;;12.75;;
54191;SDS011;40101;53.002;6.488;2024-01-06T05:56:46;26.63;;;13.60;;
54191;SDS011;40101;53.002;6.488;2024-01-06T05:59:12;24.83;;;13.40;;
54191;SDS011;40101;53.002;6.488;2024-01-06T06:01:38;21.70;;;12.52;;
54191;SDS011;40101;53.002;6.488;2024-01-06T06:04:03;26.60;;;13.00;;
54191;SDS011;40101;53.002;6.488;2024-01-06T06:06:29;23.15;;;13.68;;
54191;SDS011;40101;53.002;6.488;2024-01-06T06:08:55;29.30;;;13.85;;
54191;SDS011;40101;53.002;6.488;2024-01-06T06:11:21;25.77;;;13.98;;
54191;SDS011;40101;53.002;6.488;2024-01-06T06:13:46;26.63;;;13.45;;
54191;SDS011;40101;53.002;6.488;2024-01-06T06:16:12;22.33;;;13.50;;
54191;SDS011;40101;53.002;6.488;2024-01-06T06:18:38;22.80;;;15.02;;
54191;SDS011;40101;53.002;6.488;2024-01-06T06:21:05;28.95;;;13.95;;
54191;SDS011;40101;53.002;6.488;2024-01-06T06:23:32;25.80;;;13.70;;
54191;SDS011;40101;53.002;6.488;2024-01-06T06:26:05;24.27;;;12.13;;
54191;SDS011;40101;53.002;6.488;2024-01-06T06:28:31;24.92;;;13.93;;
54191;SDS011;40101;53.002;6.488;2024-01-06T06:30:57;23.83;;;13.52;;
54191;SDS011;40101;53.002;6.488;2024-01-06T06:33:23;22.98;;;12.93;;
54191;SDS011;40101;53.002;6.488;2024-01-06T06:35:48;22.48;;;13.18;;
54191;SDS011;40101;53.002;6.488;2024-01-06T06:38:14;25.20;;;15.63;;
54191;SDS011;40101;53.002;6.488;2024-01-06T06:40:39;20.98;;;12.82;;
54191;SDS011;40101;53.002;6.488;2024-01-06T06:43:05;22.30;;;12.30;;
54191;SDS011;40101;53.002;6.488;2024-01-06T06:45:31;23.27;;;12.77;;
54191;SDS011;40101;53.002;6.488;2024-01-06T06:47:56;23.38;;;12.60;;
54191;SDS011;40101;53.002;6.488;2024-01-06T06:50:22;21.00;;;13.25;;
54191;SDS011;40101;53.002;6.488;2024-01-06T06:52:47;21.27;;;11.68;;
54191;SDS011;40101;53.002;6.488;2024-01-06T06:55:13;20.20;;;11.60;;
54191;SDS011;40101;53.002;6.488;2024-01-06T06:57:39;22.38;;;12.27;;
54191;SDS011;40101;53.002;6.488;2024-01-06T07:00:05;23.52;;;10.70;;
54191;SDS011;40101;53.002;6.488;2024-01-06T07:02:32;18.20;;;12.18;;
54191;SDS011;40101;53.002;6.488;2024-01-06T07:04:58;21.42;;;12.95;;
54191;SDS011;40101;53.002;6.488;2024-01-06T07:07:24;22.63;;;12.38;;
54191;SDS011;40101;53.002;6.488;2024-01-06T07:09:50;22.15;;;12.88;;
54191;SDS011;40101;53.002;6.488;2024-01-06T07:12:15;19.10;;;12.35;;
54191;SDS011;40101;53.002;6.488;2024-01-06T07:14:41;19.80;;;12.10;;
54191;SDS011;40101;53.002;6.488;2024-01-06T07:17:06;20.00;;;12.38;;
54191;SDS011;40101;53.002;6.488;2024-01-06T07:19:34;19.30;;;11.98;;
54191;SDS011;40101;53.002;6.488;2024-01-06T07:21:59;22.40;;;14.38;;
54191;SDS011;40101;53.002;6.488;2024-01-06T07:24:25;22.02;;;12.55;;
54191;SDS011;40101;53.002;6.488;2024-01-06T07:26:51;31.35;;;11.95;;
54191;SDS011;40101;53.002;6.488;2024-01-06T07:29:17;23.50;;;12.43;;
54191;SDS011;40101;53.002;6.488;2024-01-06T07:31:43;23.02;;;12.07;;
54191;SDS011;40101;53.002;6.488;2024-01-06T07:34:09;23.45;;;12.63;;
54191;SDS011;40101;53.002;6.488;2024-01-06T07:36:35;25.35;;;13.80;;
54191;SDS011;40101;53.002;6.488;2024-01-06T07:39:00;20.67;;;12.32;;
54191;SDS011;40101;53.002;6.488;2024-01-06T07:41:27;19.77;;;12.82;;
54191;SDS011;40101;53.002;6.488;2024-01-06T07:43:55;19.13;;;12.80;;
54191;SDS011;40101;53.002;6.488;2024-01-06T07:46:21;23.75;;;12.90;;
54191;SDS011;40101;53.002;6.488;2024-01-06T07:48:47;21.98;;;13.25;;
54191;SDS011;40101;53.002;6.488;2024-01-06T07:51:12;24.02;;;12.63;;
54191;SDS011;40101;53.002;6.488;2024-01-06T07:53:38;20.40;;;12.75;;
54191;SDS011;40101;53.002;6.488;2024-01-06T07:56:04;20.92;;;12.90;;
54191;SDS011;40101;53.002;6.488;2024-01-06T07:58:29;22.58;;;13.10;;
54191;SDS011;40101;53.002;6.488;2024-01-06T08:00:55;26.20;;;13.00;;
54191;SDS011;40101;53.002;6.488;2024-01-06T08:03:20;21.77;;;13.60;;
54191;SDS011;40101;53.002;6.488;2024-01-06T08:05:46;23.95;;;13.50;;
54191;SDS011;40101;53.002;6.488;2024-01-06T08:08:12;26.48;;;14.90;;
54191;SDS011;40101;53.002;6.488;2024-01-06T08:10:41;25.65;;;13.85;;
54191;SDS011;40101;53.002;6.488;2024-01-06T08:13:07;25.20;;;14.13;;
54191;SDS011;40101;53.002;6.488;2024-01-06T08:15:33;28.38;;;15.52;;
54191;SDS011;40101;53.002;6.488;2024-01-06T08:17:59;23.25;;;13.60;;
54191;SDS011;40101;53.002;6.488;2024-01-06T08:20:24;23.33;;;13.25;;
54191;SDS011;40101;53.002;6.488;2024-01-06T08:22:50;23.08;;;13.27;;
54191;SDS011;40101;53.002;6.488;2024-01-06T08:25:16;22.75;;;14.50;;
54191;SDS011;40101;53.002;6.488;2024-01-06T08:27:42;22.90;;;13.20;;
54191;SDS011;40101;53.002;6.488;2024-01-06T08:30:08;23.85;;;14.07;;
54191;SDS011;40101;53.002;6.488;2024-01-06T08:32:35;22.98;;;13.55;;
54191;SDS011;40101;53.002;6.488;2024-01-06T08:35:01;25.05;;;14.82;;
54191;SDS011;40101;53.002;6.488;2024-01-06T08:37:27;27.25;;;15.18;;
54191;SDS011;40101;53.002;6.488;2024-01-06T08:39:53;25.63;;;14.90;;
54191;SDS011;40101;53.002;6.488;2024-01-06T08:42:18;31.73;;;15.82;;
54191;SDS011;40101;53.002;6.488;2024-01-06T08:44:44;23.48;;;14.60;;
54191;SDS011;40101;53.002;6.488;2024-01-06T08:47:09;22.15;;;13.80;;
54191;SDS011;40101;53.002;6.488;2024-01-06T08:49:37;22.48;;;13.85;;
54191;SDS011;40101;53.002;6.488;2024-01-06T08:52:03;25.48;;;15.82;;
54191;SDS011;40101;53.002;6.488;2024-01-06T08:54:31;23.33;;;14.35;;
54191;SDS011;40101;53.002;6.488;2024-01-06T08:56:57;28.52;;;15.93;;
54191;SDS011;40101;53.002;6.488;2024-01-06T08:59:22;22.67;;;13.52;;
54191;SDS011;40101;53.002;6.488;2024-01-06T09:01:48;30.80;;;16.63;;
54191;SDS011;40101;53.002;6.488;2024-01-06T09:04:13;24.42;;;14.95;;
54191;SDS011;40101;53.002;6.488;2024-01-06T09:06:39;25.50;;;16.15;;
54191;SDS011;40101;53.002;6.488;2024-01-06T09:09:06;28.02;;;16.10;;
54191;SDS011;40101;53.002;6.488;2024-01-06T09:11:33;25.17;;;14.55;;
54191;SDS011;40101;53.002;6.488;2024-01-06T09:13:59;27.98;;;16.33;;
54191;SDS011;40101;53.002;6.488;2024-01-06T09:16:25;27.10;;;15.45;;
54191;SDS011;40101;53.002;6.488;2024-01-06T09:18:51;30.27;;;17.42;;
54191;SDS011;40101;53.002;6.488;2024-01-06T09:21:17;23.88;;;15.32;;
54191;SDS011;40101;53.002;6.488;2024-01-06T09:23:42;24.38;;;13.98;;
54191;SDS011;40101;53.002;6.488;2024-01-06T09:26:08;24.95;;;15.52;;
54191;SDS011;40101;53.002;6.488;2024-01-06T09:28:34;20.75;;;14.07;;
54191;SDS011;40101;53.002;6.488;2024-01-06T09:31:00;21.85;;;14.10;;
54191;SDS011;40101;53.002;6.488;2024-01-06T09:33:25;24.58;;;15.10;;
54191;SDS011;40101;53.002;6.488;2024-01-06T09:35:51;24.40;;;13.65;;
54191;SDS011;40101;53.002;6.488;2024-01-06T09:38:17;21.98;;;14.18;;
54191;SDS011;40101;53.002;6.488;2024-01-06T09:40:44;19.73;;;12.65;;
54191;SDS011;40101;53.002;6.488;2024-01-06T09:43:13;20.15;;;13.93;;
54191;SDS011;40101;53.002;6.488;2024-01-06T09:45:38;20.58;;;13.45;;
54191;SDS011;40101;53.002;6.488;2024-01-06T09:48:10;20.48;;;12.18;;
54191;SDS011;40101;53.002;6.488;2024-01-06T09:50:39;20.50;;;12.50;;
54191;SDS011;40101;53.002;6.488;2024-01-06T09:53:06;19.40;;;12.93;;
54191;SDS011;40101;53.002;6.488;2024-01-06T09:55:36;22.67;;;12.68;;
54191;SDS011;40101;53.002;6.488;2024-01-06T09:58:02;21.50;;;13.10;;
54191;SDS011;40101;53.002;6.488;2024-01-06T10:00:28;21.17;;;13.60;;
54191;SDS011;40101;53.002;6.488;2024-01-06T10:02:54;21.52;;;13.43;;
54191;SDS011;40101;53.002;6.488;2024-01-06T10:05:20;22.33;;;12.88;;
54191;SDS011;40101;53.002;6.488;2024-01-06T10:07:46;20.63;;;12.93;;
54191;SDS011;40101;53.002;6.488;2024-01-06T10:10:12;20.95;;;12.82;;
54191;SDS011;40101;53.002;6.488;2024-01-06T10:12:38;21.27;;;12.90;;
54191;SDS011;40101;53.002;6.488;2024-01-06T10:15:04;23.13;;;12.63;;
54191;SDS011;40101;53.002;6.488;2024-01-06T10:17:32;21.05;;;12.20;;
54191;SDS011;40101;53.002;6.488;2024-01-06T10:19:58;22.58;;;13.70;;
54191;SDS011;40101;53.002;6.488;2024-01-06T10:22:25;19.98;;;12.48;;
54191;SDS011;40101;53.002;6.488;2024-01-06T10:24:50;21.77;;;13.73;;
54191;SDS011;40101;53.002;6.488;2024-01-06T10:27:16;21.20;;;13.43;;
54191;SDS011;40101;53.002;6.488;2024-01-06T10:29:41;23.13;;;13.93;;
54191;SDS011;40101;53.002;6.488;2024-01-06T10:32:07;21.50;;;13.52;;
54191;SDS011;40101;53.002;6.488;2024-01-06T10:34:33;23.80;;;14.25;;
54191;SDS011;40101;53.002;6.488;2024-01-06T10:37:01;21.08;;;13.57;;
54191;SDS011;40101;53.002;6.488;2024-01-06T10:39:27;22.45;;;13.65;;
54191;SDS011;40101;53.002;6.488;2024-01-06T10:41:54;22.52;;;12.60;;
54191;SDS011;40101;53.002;6.488;2024-01-06T10:44:20;18.48;;;11.25;;
54191;SDS011;40101;53.002;6.488;2024-01-06T10:46:46;18.05;;;11.85;;
54191;SDS011;40101;53.002;6.488;2024-01-06T10:49:14;15.95;;;11.13;;
54191;SDS011;40101;53.002;6.488;2024-01-06T10:51:42;19.55;;;12.50;;
54191;SDS011;40101;53.002;6.488;2024-01-06T10:54:11;17.83;;;10.73;;
54191;SDS011;40101;53.002;6.488;2024-01-06T10:56:38;21.42;;;11.93;;
54191;SDS011;40101;53.002;6.488;2024-01-06T10:59:04;17.95;;;11.48;;
54191;SDS011;40101;53.002;6.488;2024-01-06T11:01:31;18.27;;;11.10;;
54191;SDS011;40101;53.002;6.488;2024-01-06T11:03:57;15.95;;;10.13;;
54191;SDS011;40101;53.002;6.488;2024-01-06T11:06:24;18.77;;;11.30;;
54191;SDS011;40101;53.002;6.488;2024-01-06T11:09:00;16.92;;;10.32;;
54191;SDS011;40101;53.002;6.488;2024-01-06T11:11:31;18.73;;;10.82;;
54191;SDS011;40101;53.002;6.488;2024-01-06T11:16:43;15.27;;;9.93;;
54191;SDS011;40101;53.002;6.488;2024-01-06T11:22:18;15.73;;;10.23;;
54191;SDS011;40101;53.002;6.488;2024-01-06T11:24:47;16.02;;;9.60;;
54191;SDS011;40101;53.002;6.488;2024-01-06T11:27:20;18.13;;;9.65;;
54191;SDS011;40101;53.002;6.488;2024-01-06T11:29:48;17.85;;;10.57;;
54191;SDS011;40101;53.002;6.488;2024-01-06T11:32:29;15.63;;;9.77;;
54191;SDS011;40101;53.002;6.488;2024-01-06T11:35:08;15.90;;;11.07;;
54191;SDS011;40101;53.002;6.488;2024-01-06T11:40:07;15.82;;;10.80;;
54191;SDS011;40101;53.002;6.488;2024-01-06T11:42:46;15.70;;;10.05;;
54191;SDS011;40101;53.002;6.488;2024-01-06T11:45:33;18.92;;;11.00;;
54191;SDS011;40101;53.002;6.488;2024-01-06T11:48:03;18.35;;;10.35;;
54191;SDS011;40101;53.002;6.488;2024-01-06T11:50:31;17.98;;;11.35;;
54191;SDS011;40101;53.002;6.488;2024-01-06T11:52:58;18.30;;;11.50;;
54191;SDS011;40101;53.002;6.488;2024-01-06T11:55:25;14.77;;;10.18;;
54191;SDS011;40101;53.002;6.488;2024-01-06T11:57:55;14.23;;;10.05;;
54191;SDS011;40101;53.002;6.488;2024-01-06T12:00:22;15.93;;;10.43;;
54191;SDS011;40101;53.002;6.488;2024-01-06T12:02:48;13.88;;;9.80;;
54191;SDS011;40101;53.002;6.488;2024-01-06T12:05:15;15.25;;;10.05;;
54191;SDS011;40101;53.002;6.488;2024-01-06T12:07:42;16.65;;;10.20;;
54191;SDS011;40101;53.002;6.488;2024-01-06T12:10:19;13.13;;;8.57;;
54191;SDS011;40101;53.002;6.488;2024-01-06T12:13:03;16.70;;;9.13;;
54191;SDS011;40101;53.002;6.488;2024-01-06T12:15:34;14.15;;;9.07;;
54191;SDS011;40101;53.002;6.488;2024-01-06T12:18:04;16.02;;;9.57;;
54191;SDS011;40101;53.002;6.488;2024-01-06T12:20:30;16.48;;;11.10;;
54191;SDS011;40101;53.002;6.488;2024-01-06T12:23:10;13.68;;;10.05;;
54191;SDS011;40101;53.002;6.488;2024-01-06T12:26:00;15.82;;;10.07;;
54191;SDS011;40101;53.002;6.488;2024-01-06T12:28:26;16.73;;;10.75;;
54191;SDS011;40101;53.002;6.488;2024-01-06T12:30:53;15.73;;;9.85;;
54191;SDS011;40101;53.002;6.488;2024-01-06T12:33:19;14.73;;;9.02;;
54191;SDS011;40101;53.002;6.488;2024-01-06T12:35:45;16.70;;;11.02;;
54191;SDS011;40101;53.002;6.488;2024-01-06T12:38:11;15.48;;;10.30;;
54191;SDS011;40101;53.002;6.488;2024-01-06T12:40:37;15.38;;;10.30;;
54191;SDS011;40101;53.002;6.488;2024-01-06T12:43:06;15.82;;;10.23;;
54191;SDS011;40101;53.002;6.488;2024-01-06T12:45:31;14.50;;;9.93;;
54191;SDS011;40101;53.002;6.488;2024-01-06T12:47:57;13.75;;;10.25;;
54191;SDS011;40101;53.002;6.488;2024-01-06T12:50:22;14.15;;;9.65;;
54191;SDS011;40101;53.002;6.488;2024-01-06T12:52:48;16.27;;;9.68;;
54191;SDS011;40101;53.002;6.488;2024-01-06T12:55:14;15.65;;;11.23;;
54191;SDS011;40101;53.002;6.488;2024-01-06T12:57:40;12.73;;;9.05;;
54191;SDS011;40101;53.002;6.488;2024-01-06T13:00:07;16.25;;;10.38;;
54191;SDS011;40101;53.002;6.488;2024-01-06T13:02:36;16.60;;;10.05;;
54191;SDS011;40101;53.002;6.488;2024-01-06T13:05:02;17.20;;;10.00;;
54191;SDS011;40101;53.002;6.488;2024-01-06T13:07:28;16.58;;;10.82;;
54191;SDS011;40101;53.002;6.488;2024-01-06T13:09:54;15.65;;;10.07;;
54191;SDS011;40101;53.002;6.488;2024-01-06T13:12:20;12.77;;;9.30;;
54191;SDS011;40101;53.002;6.488;2024-01-06T13:14:45;14.57;;;9.52;;
54191;SDS011;40101;53.002;6.488;2024-01-06T13:17:14;16.23;;;11.15;;
54191;SDS011;40101;53.002;6.488;2024-01-06T13:19:40;15.55;;;10.13;;
54191;SDS011;40101;53.002;6.488;2024-01-06T13:22:05;18.67;;;10.85;;
54191;SDS011;40101;53.002;6.488;2024-01-06T13:24:31;14.15;;;9.80;;
54191;SDS011;40101;53.002;6.488;2024-01-06T13:26:57;15.88;;;10.02;;
54191;SDS011;40101;53.002;6.488;2024-01-06T13:29:24;18.15;;;11.80;;
54191;SDS011;40101;53.002;6.488;2024-01-06T13:31:49;16.08;;;10.95;;
54191;SDS011;40101;53.002;6.488;2024-01-06T13:34:15;17.08;;;11.10;;
54191;SDS011;40101;53.002;6.488;2024-01-06T13:36:41;15.95;;;10.30;;
54191;SDS011;40101;53.002;6.488;2024-01-06T13:39:16;14.50;;;10.35;;
54191;SDS011;40101;53.002;6.488;2024-01-06T13:41:50;15.70;;;9.90;;
54191;SDS011;40101;53.002;6.488;2024-01-06T13:44:38;15.20;;;10.13;;
54191;SDS011;40101;53.002;6.488;2024-01-06T13:47:09;15.00;;;9.07;;
54191;SDS011;40101;53.002;6.488;2024-01-06T13:49:38;16.48;;;9.95;;
54191;SDS011;40101;53.002;6.488;2024-01-06T13:52:06;14.07;;;9.48;;
54191;SDS011;40101;53.002;6.488;2024-01-06T13:54:52;14.75;;;10.20;;
54191;SDS011;40101;53.002;6.488;2024-01-06T13:57:18;14.45;;;9.25;;
54191;SDS011;40101;53.002;6.488;2024-01-06T13:59:53;15.48;;;9.45;;
54191;SDS011;40101;53.002;6.488;2024-01-06T14:02:19;18.55;;;11.02;;
54191;SDS011;40101;53.002;6.488;2024-01-06T14:04:44;16.20;;;10.35;;
54191;SDS011;40101;53.002;6.488;2024-01-06T14:07:10;13.30;;;9.52;;
54191;SDS011;40101;53.002;6.488;2024-01-06T14:09:36;14.00;;;8.95;;
54191;SDS011;40101;53.002;6.488;2024-01-06T14:12:02;14.68;;;9.80;;
54191;SDS011;40101;53.002;6.488;2024-01-06T14:14:31;16.25;;;10.25;;
54191;SDS011;40101;53.002;6.488;2024-01-06T14:16:57;13.73;;;9.52;;
54191;SDS011;40101;53.002;6.488;2024-01-06T14:19:26;16.92;;;9.82;;
54191;SDS011;40101;53.002;6.488;2024-01-06T14:21:58;14.38;;;9.32;;
54191;SDS011;40101;53.002;6.488;2024-01-06T14:24:24;14.35;;;9.52;;
54191;SDS011;40101;53.002;6.488;2024-01-06T14:26:50;15.25;;;10.32;;
54191;SDS011;40101;53.002;6.488;2024-01-06T14:29:24;14.20;;;8.90;;